createdAt,value
2024-05-09T00:00:47.870Z,100326.84
2024-05-09T00:03:36.019Z,100326.84
2024-05-09T00:06:04.952Z,100322.70
2024-05-09T00:08:32.955Z,100321.34
2024-05-09T00:11:00.959Z,100319.59
2024-05-09T00:13:28.940Z,100320.91
2024-05-09T00:15:56.997Z,100315.11
2024-05-09T00:18:24.962Z,100314.35
2024-05-09T00:20:53.112Z,100316.41
2024-05-09T00:23:21.036Z,100315.48
2024-05-09T00:25:49.015Z,100313.40
2024-05-09T00:28:16.891Z,100313.86
2024-05-09T00:30:44.654Z,100312.55
2024-05-09T00:33:12.856Z,100314.52
2024-05-09T00:35:41.355Z,100315.02
2024-05-09T00:38:10.451Z,100308.64
2024-05-09T00:40:41.748Z,100311.55
2024-05-09T00:43:13.925Z,100312.21
2024-05-09T00:45:44.030Z,100313.13
2024-05-09T00:48:17.481Z,100312.98
2024-05-09T00:50:49.060Z,100313.33
2024-05-09T00:53:18.772Z,100310.57
2024-05-09T00:55:47.345Z,100306.09
2024-05-09T00:58:18.313Z,100308.50
2024-05-09T01:00:46.392Z,100303.48
2024-05-09T01:03:14.688Z,100300.29
2024-05-09T01:05:44.344Z,100301.25
2024-05-09T01:08:12.939Z,100298.60
2024-05-09T01:10:44.280Z,100296.70
2024-05-09T01:13:14.017Z,100295.36
2024-05-09T01:15:42.966Z,100294.48
2024-05-09T01:18:12.632Z,100296.95
2024-05-09T01:20:44.386Z,100298.20
2024-05-09T01:23:15.546Z,100301.69
2024-05-09T01:25:46.148Z,100298.12
2024-05-09T01:28:16.107Z,100300.13
2024-05-09T01:30:44.329Z,100301.38
2024-05-09T01:33:13.014Z,100297.74
2024-05-09T01:35:42.664Z,100300.92
2024-05-09T01:38:13.072Z,100299.63
2024-05-09T01:40:41.402Z,100300.59
2024-05-09T01:43:10.978Z,100300.25
2024-05-09T01:45:41.200Z,100296.40
2024-05-09T01:48:10.589Z,100297.58
2024-05-09T01:50:42.012Z,100300.32
2024-05-09T01:53:13.835Z,100300.08
2024-05-09T01:55:42.731Z,100297.96
2024-05-09T01:58:10.873Z,100294.29
2024-05-09T02:00:42.149Z,100293.42
2024-05-09T02:03:15.552Z,100294.33
2024-05-09T02:05:47.601Z,100292.27
2024-05-09T02:08:21.485Z,100288.23
2024-05-09T02:10:50.670Z,100283.27
2024-05-09T02:13:19.121Z,100287.73
2024-05-09T02:15:47.402Z,100286.52
2024-05-09T02:18:15.356Z,100286.69
2024-05-09T02:20:44.131Z,100287.41
2024-05-09T02:23:13.464Z,100284.19
2024-05-09T02:25:41.972Z,100283.21
2024-05-09T02:28:09.806Z,100282.19
2024-05-09T02:30:40.894Z,100278.44
2024-05-09T02:33:12.305Z,100280.05
2024-05-09T02:35:43.764Z,100281.63
2024-05-09T02:38:13.070Z,100287.30
2024-05-09T02:40:41.409Z,100288.02
2024-05-09T02:43:12.550Z,100287.75
2024-05-09T02:45:41.735Z,100284.69
2024-05-09T02:48:12.449Z,100285.73
2024-05-09T02:50:43.818Z,100287.48
2024-05-09T02:53:12.770Z,100290.12
2024-05-09T02:55:41.748Z,100292.45
2024-05-09T02:58:10.825Z,100294.73
2024-05-09T03:00:41.735Z,100296.36
2024-05-09T03:03:14.113Z,100294.27
2024-05-09T03:05:45.490Z,100294.90
2024-05-09T03:08:14.022Z,100290.88
2024-05-09T03:10:42.578Z,100292.32
2024-05-09T03:13:14.717Z,100290.96
2024-05-09T03:15:44.271Z,100294.12
2024-05-09T03:18:12.957Z,100293.67
2024-05-09T03:20:43.478Z,100290.34
2024-05-09T03:23:11.958Z,100293.02
2024-05-09T03:25:39.940Z,100293.50
2024-05-09T03:28:07.725Z,100295.81
2024-05-09T03:30:41.155Z,100296.98
2024-05-09T03:33:13.784Z,100298.35
2024-05-09T03:35:45.952Z,100301.52
2024-05-09T03:38:14.188Z,100302.38
2024-05-09T03:40:49.940Z,100300.48
2024-05-09T03:43:19.800Z,100301.27
2024-05-09T03:45:50.260Z,100304.52
2024-05-09T03:48:18.196Z,100304.06
2024-05-09T03:50:47.101Z,100301.54
2024-05-09T03:53:15.634Z,100300.61
2024-05-09T03:55:43.780Z,100300.91
2024-05-09T03:58:14.088Z,100300.73
2024-05-09T04:00:42.964Z,100301.46
2024-05-09T04:03:12.599Z,100303.26
2024-05-09T04:05:44.023Z,100305.65
2024-05-09T04:08:15.264Z,100310.36
2024-05-09T04:10:44.059Z,100315.27
2024-05-09T04:13:12.323Z,100311.27
2024-05-09T04:15:40.538Z,100310.77
2024-05-09T04:18:08.649Z,100313.11
2024-05-09T04:20:39.790Z,100312.77
2024-05-09T04:23:14.243Z,100315.39
2024-05-09T04:25:45.266Z,100316.89
2024-05-09T04:28:14.424Z,100322.69
2024-05-09T04:30:43.306Z,100321.86
2024-05-09T04:33:13.762Z,100324.42
2024-05-09T04:35:43.752Z,100324.59
2024-05-09T04:38:13.783Z,100325.80
2024-05-09T04:40:42.893Z,100326.21
2024-05-09T04:43:15.822Z,100324.48
2024-05-09T04:45:44.495Z,100325.09
2024-05-09T04:48:12.570Z,100322.25
2024-05-09T04:50:40.596Z,100326.25
2024-05-09T04:53:10.563Z,100330.99
2024-05-09T04:55:40.536Z,100333.64
2024-05-09T04:58:09.679Z,100335.02
2024-05-09T05:00:41.427Z,100334.85
2024-05-09T05:03:13.990Z,100333.77
2024-05-09T05:05:46.293Z,100336.64
2024-05-09T05:08:17.976Z,100337.02
2024-05-09T05:10:48.440Z,100334.92
2024-05-09T05:13:21.582Z,100335.61
2024-05-09T05:15:53.051Z,100336.45
2024-05-09T05:18:21.422Z,100337.70
2024-05-09T05:20:49.757Z,100340.05
2024-05-09T05:23:22.696Z,100340.56
2024-05-09T05:25:53.080Z,100340.08
2024-05-09T05:28:21.986Z,100342.85
2024-05-09T05:30:50.551Z,100336.06
2024-05-09T05:33:19.664Z,100334.63
2024-05-09T05:35:48.247Z,100335.70
2024-05-09T05:38:16.478Z,100342.85
2024-05-09T05:40:45.005Z,100340.64
2024-05-09T05:43:18.343Z,100343.23
2024-05-09T05:45:46.680Z,100341.85
2024-05-09T05:48:16.554Z,100344.20
2024-05-09T05:50:54.094Z,100344.22
2024-05-09T05:53:21.957Z,100345.73
2024-05-09T05:55:50.164Z,100348.55
2024-05-09T05:58:21.464Z,100349.55
2024-05-09T06:00:52.962Z,100351.23
2024-05-09T06:03:21.095Z,100352.98
2024-05-09T06:05:49.165Z,100350.84
2024-05-09T06:08:16.975Z,100352.44
2024-05-09T06:10:45.380Z,100352.71
2024-05-09T06:13:14.554Z,100355.03
2024-05-09T06:15:43.464Z,100353.17
2024-05-09T06:18:14.588Z,100357.45
2024-05-09T06:20:43.971Z,100357.44
2024-05-09T06:23:12.945Z,100357.02
2024-05-09T06:25:42.392Z,100359.86
2024-05-09T06:28:11.021Z,100364.21
2024-05-09T06:30:41.938Z,100364.36
2024-05-09T06:33:13.812Z,100363.34
2024-05-09T06:35:44.388Z,100362.59
2024-05-09T06:38:12.710Z,100357.97
2024-05-09T06:40:43.070Z,100359.65
2024-05-09T06:43:17.928Z,100365.52
2024-05-09T06:45:49.009Z,100367.75
2024-05-09T06:48:19.269Z,100370.16
2024-05-09T06:50:47.895Z,100371.77
2024-05-09T06:53:17.159Z,100371.35
2024-05-09T06:55:45.291Z,100370.46
2024-05-09T06:58:13.335Z,100373.15
2024-05-09T07:00:42.238Z,100376.06
2024-05-09T07:03:13.411Z,100378.38
2024-05-09T07:05:43.891Z,100379.89
2024-05-09T07:08:12.063Z,100378.61
2024-05-09T07:10:39.937Z,100375.04
2024-05-09T07:13:09.627Z,100374.65
2024-05-09T07:15:38.213Z,100380.23
2024-05-09T07:18:11.332Z,100387.03
2024-05-09T07:20:40.424Z,100390.33
2024-05-09T07:23:10.011Z,100385.90
2024-05-09T07:25:39.575Z,100393.94
2024-05-09T07:28:16.005Z,100394.57
2024-05-09T07:30:44.366Z,100393.10
2024-05-09T07:33:21.323Z,100396.13
2024-05-09T07:35:51.193Z,100395.86
2024-05-09T07:38:19.520Z,100398.13
2024-05-09T07:40:47.619Z,100399.22
2024-05-09T07:43:16.270Z,100402.07
2024-05-09T07:45:52.267Z,100405.45
2024-05-09T07:52:38.956Z,100404.60
2024-05-09T07:53:48.221Z,100407.77
2024-05-09T07:56:21.918Z,100408.85
2024-05-09T07:58:52.476Z,100411.34
2024-05-09T08:01:21.069Z,100415.98
2024-05-09T08:03:50.676Z,100420.38
2024-05-09T08:06:19.037Z,100416.36
2024-05-09T08:08:47.560Z,100417.29
2024-05-09T08:11:15.876Z,100416.31
2024-05-09T08:13:44.032Z,100419.08
2024-05-09T08:16:14.206Z,100420.21
2024-05-09T08:18:42.498Z,100420.91
2024-05-09T08:21:10.539Z,100417.97
2024-05-09T08:23:38.434Z,100418.74
2024-05-09T08:26:06.355Z,100420.43
2024-05-09T08:28:34.342Z,100421.73
2024-05-09T08:31:06.024Z,100422.17
2024-05-09T08:33:35.237Z,100426.20
2024-05-09T08:36:03.736Z,100424.09
2024-05-09T08:38:31.817Z,100425.35
2024-05-09T08:41:03.882Z,100428.01
2024-05-09T08:43:31.725Z,100425.66
2024-05-09T08:46:00.388Z,100426.63
2024-05-09T08:48:30.834Z,100426.22
2024-05-09T08:50:59.268Z,100428.02
2024-05-09T08:53:27.715Z,100430.55
2024-05-09T08:56:00.658Z,100428.73
2024-05-09T08:58:31.651Z,100432.58
2024-05-09T09:01:02.384Z,100431.33
2024-05-09T09:03:32.726Z,100430.71
2024-05-09T09:06:12.060Z,100433.75
2024-05-09T09:08:40.734Z,100429.30
2024-05-09T09:11:08.908Z,100429.80
2024-05-09T09:13:37.144Z,100424.84
2024-05-09T09:16:06.473Z,100423.54
2024-05-09T09:18:34.683Z,100427.36
2024-05-09T09:21:03.441Z,100428.67
2024-05-09T09:23:31.496Z,100435.23
2024-05-09T09:26:00.203Z,100437.04
2024-05-09T09:28:29.317Z,100438.88
2024-05-09T09:31:04.376Z,100442.46
2024-05-09T09:33:32.979Z,100452.65
2024-05-09T09:36:05.855Z,100456.83
2024-05-09T09:38:37.447Z,100456.95
2024-05-09T09:41:08.028Z,100461.13
2024-05-09T09:43:36.836Z,100457.54
2024-05-09T09:46:08.731Z,100463.34
2024-05-09T09:48:40.044Z,100461.50
2024-05-09T09:51:09.016Z,100458.24
2024-05-09T09:53:38.617Z,100451.19
2024-05-09T09:56:10.024Z,100446.38
2024-05-09T09:58:40.462Z,100450.05
2024-05-09T10:01:08.609Z,100448.02
2024-05-09T10:03:37.044Z,100448.23
2024-05-09T10:06:07.565Z,100444.42
2024-05-09T10:08:36.636Z,100445.61
2024-05-09T10:11:06.266Z,100448.58
2024-05-09T10:13:35.182Z,100440.27
2024-05-09T10:16:10.795Z,100442.55
2024-05-09T10:18:40.762Z,100443.73
2024-05-09T10:21:17.441Z,100447.92
2024-05-09T10:23:57.795Z,100444.93
2024-05-09T10:26:38.376Z,100444.50
2024-05-09T10:29:12.151Z,100445.86
2024-05-09T10:31:45.624Z,100446.08
2024-05-09T10:34:18.123Z,100444.04
2024-05-09T10:36:46.839Z,100443.14
2024-05-09T10:39:15.703Z,100438.08
2024-05-09T10:41:43.701Z,100432.86
2024-05-09T10:44:14.303Z,100435.98
2024-05-09T10:46:43.498Z,100437.13
2024-05-09T10:49:14.211Z,100438.12
2024-05-09T10:51:45.010Z,100432.24
2024-05-09T10:54:12.844Z,100425.21
2024-05-09T10:56:41.842Z,100421.65
2024-05-09T10:59:12.448Z,100420.88
2024-05-09T11:01:40.511Z,100420.94
2024-05-09T11:04:09.002Z,100419.48
2024-05-09T11:06:38.244Z,100418.13
2024-05-09T11:09:06.810Z,100413.11
2024-05-09T11:11:34.947Z,100422.27
2024-05-09T11:14:12.834Z,100419.30
2024-05-09T11:16:41.122Z,100417.66
2024-05-09T11:19:13.875Z,100410.05
2024-05-09T11:21:42.146Z,100411.40
2024-05-09T11:24:11.563Z,100412.55
2024-05-09T11:26:39.936Z,100414.88
2024-05-09T11:29:07.927Z,100414.64
2024-05-09T11:31:48.156Z,100421.23
2024-05-09T11:34:16.338Z,100419.59
2024-05-09T11:36:44.401Z,100417.71
2024-05-09T11:39:14.479Z,100418.30
2024-05-09T11:41:42.264Z,100410.56
2024-05-09T11:44:10.553Z,100411.98
2024-05-09T11:46:38.692Z,100406.98
2024-05-09T11:49:07.275Z,100403.36
2024-05-09T11:51:35.298Z,100405.65
2024-05-09T11:54:03.356Z,100408.09
2024-05-09T11:56:31.549Z,100409.38
2024-05-09T11:58:59.855Z,100407.71
2024-05-09T12:01:28.228Z,100403.10
2024-05-09T12:03:56.479Z,100404.36
2024-05-09T12:06:24.638Z,100408.15
2024-05-09T12:08:52.528Z,100410.05
2024-05-09T12:11:20.606Z,100412.95
2024-05-09T12:13:48.588Z,100410.29
2024-05-09T12:16:16.735Z,100411.37
2024-05-09T12:18:44.873Z,100410.52
2024-05-09T12:21:16.919Z,100412.79
2024-05-09T12:23:44.630Z,100408.91
2024-05-09T12:26:12.826Z,100410.05
2024-05-09T12:28:40.795Z,100406.84
2024-05-09T12:31:08.577Z,100404.41
2024-05-09T12:33:36.445Z,100404.17
2024-05-09T12:36:04.523Z,100403.27
2024-05-09T12:38:32.286Z,100405.08
2024-05-09T12:41:00.106Z,100404.30
2024-05-09T12:43:27.840Z,100405.90
2024-05-09T12:45:55.662Z,100404.47
2024-05-09T12:48:23.714Z,100401.16
2024-05-09T12:50:51.961Z,100398.98
2024-05-09T12:53:19.653Z,100396.30
2024-05-09T12:55:53.762Z,100392.22
2024-05-09T12:58:25.328Z,100392.08
2024-05-09T13:00:53.822Z,100390.36
2024-05-09T13:03:22.296Z,100389.34
2024-05-09T13:05:51.511Z,100390.52
2024-05-09T13:08:20.248Z,100392.67
2024-05-09T13:10:48.177Z,100393.69
2024-05-09T13:13:16.517Z,100396.32
2024-05-09T13:15:44.775Z,100395.84
2024-05-09T13:18:13.258Z,100396.67
2024-05-09T13:20:41.395Z,100393.50
2024-05-09T13:23:09.202Z,100386.15
2024-05-09T13:25:38.108Z,100383.03
2024-05-09T13:28:07.694Z,100384.86
2024-05-09T13:30:40.518Z,100386.45
2024-05-09T13:33:12.212Z,100387.67
2024-05-09T13:35:47.584Z,100383.41
2024-05-09T13:38:20.045Z,100379.70
2024-05-09T13:40:49.228Z,100376.35
2024-05-09T13:43:18.392Z,100375.02
2024-05-09T13:45:47.548Z,100370.97
2024-05-09T13:48:15.939Z,100364.98
2024-05-09T13:50:44.008Z,100370.22
2024-05-09T13:53:11.748Z,100368.19
2024-05-09T13:55:40.749Z,100371.77
2024-05-09T13:58:09.626Z,100370.78
2024-05-09T14:00:46.449Z,100365.17
2024-05-09T14:03:19.834Z,100368.52
2024-05-09T14:05:50.968Z,100372.51
2024-05-09T14:08:21.811Z,100370.20
2024-05-09T14:10:50.828Z,100372.85
2024-05-09T14:13:19.762Z,100370.69
2024-05-09T14:15:48.068Z,100374.74
2024-05-09T14:18:16.772Z,100374.21
2024-05-09T14:20:47.508Z,100370.69
2024-05-09T14:23:17.827Z,100370.59
2024-05-09T14:25:49.046Z,100373.70
2024-05-09T14:28:20.904Z,100375.01
2024-05-09T14:30:48.996Z,100374.46
2024-05-09T14:33:23.033Z,100373.08
2024-05-09T14:35:51.088Z,100371.68
2024-05-09T14:38:18.953Z,100372.34
2024-05-09T14:40:47.168Z,100367.98
2024-05-09T14:43:17.177Z,100371.26
2024-05-09T14:45:46.186Z,100369.48
2024-05-09T14:48:15.757Z,100370.54
2024-05-09T14:50:47.035Z,100369.17
2024-05-09T14:53:15.068Z,100368.05
2024-05-09T14:55:45.944Z,100369.02
2024-05-09T14:58:14.073Z,100371.98
2024-05-09T15:00:46.660Z,100372.73
2024-05-09T15:03:20.822Z,100371.54
2024-05-09T15:05:51.213Z,100368.20
2024-05-09T15:08:20.229Z,100371.20
2024-05-09T15:10:49.886Z,100374.20
2024-05-09T15:13:19.498Z,100371.80
2024-05-09T15:15:47.896Z,100372.77
2024-05-09T15:18:16.647Z,100374.86
2024-05-09T15:20:45.270Z,100377.73
2024-05-09T15:23:14.464Z,100377.21
2024-05-09T15:25:44.492Z,100374.46
2024-05-09T15:28:12.542Z,100375.27
2024-05-09T15:30:42.785Z,100375.27
2024-05-09T15:33:13.947Z,100369.52
2024-05-09T15:35:42.450Z,100370.03
2024-05-09T15:38:10.441Z,100373.00
2024-05-09T15:40:40.537Z,100376.20
2024-05-09T15:43:10.983Z,100374.89
2024-05-09T15:45:41.365Z,100375.67
2024-05-09T15:48:12.339Z,100373.02
2024-05-09T15:50:42.294Z,100373.81
2024-05-09T15:53:13.359Z,100374.38
2024-05-09T15:55:42.373Z,100374.77
2024-05-09T15:58:10.939Z,100375.27
2024-05-09T16:00:42.373Z,100373.88
2024-05-09T16:03:13.891Z,100373.88
2024-05-09T16:05:45.505Z,100374.17
2024-05-09T16:08:15.489Z,100376.41
2024-05-09T16:10:45.850Z,100380.98
2024-05-09T16:13:15.875Z,100381.39
2024-05-09T16:15:44.422Z,100386.69
2024-05-09T16:18:12.868Z,100385.44
2024-05-09T16:20:42.525Z,100385.36
2024-05-09T16:23:12.994Z,100390.45
2024-05-09T16:25:45.937Z,100394.83
2024-05-09T16:28:14.047Z,100394.55
2024-05-09T16:30:42.500Z,100392.63
2024-05-09T16:33:12.156Z,100393.35
2024-05-09T16:35:40.947Z,100395.10
2024-05-09T16:38:08.979Z,100395.02
2024-05-09T16:40:40.425Z,100398.90
2024-05-09T16:43:11.888Z,100398.75
2024-05-09T16:45:43.594Z,100399.77
2024-05-09T16:48:12.866Z,100398.42
2024-05-09T16:50:40.833Z,100399.27
2024-05-09T16:53:09.056Z,100401.52
2024-05-09T16:55:37.201Z,100401.17
2024-05-09T16:58:08.148Z,100406.64
2024-05-09T17:00:41.533Z,100409.40
2024-05-09T17:03:14.817Z,100412.98
2024-05-09T17:05:48.035Z,100413.16
2024-05-09T17:08:19.895Z,100419.30
2024-05-09T17:10:49.225Z,100418.66
2024-05-09T17:13:18.341Z,100419.61
2024-05-09T17:15:46.994Z,100421.95
2024-05-09T17:18:15.647Z,100422.81
2024-05-09T17:20:43.650Z,100422.34
2024-05-09T17:23:14.736Z,100419.41
2024-05-09T17:25:43.102Z,100421.73
2024-05-09T17:28:11.790Z,100422.80
2024-05-09T17:30:41.994Z,100425.27
2024-05-09T17:33:12.853Z,100427.64
2024-05-09T17:35:41.452Z,100427.38
2024-05-09T17:38:09.508Z,100427.16
2024-05-09T17:40:38.627Z,100424.38
2024-05-09T17:43:09.923Z,100427.08
2024-05-09T17:45:40.684Z,100427.52
2024-05-09T17:48:10.900Z,100430.64
2024-05-09T17:50:40.507Z,100431.55
2024-05-09T17:53:10.113Z,100431.27
2024-05-09T17:55:38.135Z,100433.09
2024-05-09T17:58:06.578Z,100438.84
2024-05-09T18:00:39.356Z,100438.13
2024-05-09T18:03:11.966Z,100438.85
2024-05-09T18:05:43.318Z,100440.08
2024-05-09T18:08:12.496Z,100441.80
2024-05-09T18:10:41.502Z,100444.19
2024-05-09T18:13:12.930Z,100445.17
2024-05-09T18:15:41.809Z,100445.91
2024-05-09T18:18:12.688Z,100446.27
2024-05-09T18:20:44.883Z,100450.13
2024-05-09T18:23:17.774Z,100453.29
2024-05-09T18:25:47.664Z,100455.46
2024-05-09T18:28:16.996Z,100459.01
2024-05-09T18:30:45.752Z,100464.11
2024-05-09T18:33:14.495Z,100465.33
2024-05-09T18:35:44.037Z,100469.70
2024-05-09T18:38:12.173Z,100471.21
2024-05-09T18:40:42.039Z,100474.70
2024-05-09T18:43:12.013Z,100478.68
2024-05-09T18:45:40.224Z,100483.17
2024-05-09T18:48:09.702Z,100484.67
2024-05-09T18:50:40.635Z,100485.61
2024-05-09T18:53:12.075Z,100486.48
2024-05-09T18:55:42.519Z,100486.39
2024-05-09T18:58:10.761Z,100493.17
2024-05-09T19:00:41.546Z,100498.44
2024-05-09T19:03:13.989Z,100496.63
2024-05-09T19:05:45.077Z,100499.65
2024-05-09T19:08:14.803Z,100500.42
2024-05-09T19:10:45.018Z,100504.27
2024-05-09T19:13:16.904Z,100502.77
2024-05-09T19:15:55.859Z,100502.32
2024-05-09T19:18:23.778Z,100506.98
2024-05-09T19:20:51.625Z,100509.90
2024-05-09T19:23:19.928Z,100514.59
2024-05-09T19:25:53.843Z,100515.58
2024-05-09T19:28:21.737Z,100516.21
2024-05-09T19:30:50.288Z,100518.81
2024-05-09T19:33:18.551Z,100518.66
2024-05-09T19:35:46.714Z,100524.25
2024-05-09T19:38:17.230Z,100525.49
2024-05-09T19:40:45.404Z,100526.50
2024-05-09T19:43:13.484Z,100528.95
2024-05-09T19:45:42.108Z,100531.84
2024-05-09T19:48:10.611Z,100531.05
2024-05-09T19:50:43.118Z,100529.04
2024-05-09T19:53:14.744Z,100527.35
2024-05-09T19:55:43.588Z,100527.21
2024-05-09T19:58:12.706Z,100532.65
2024-05-09T20:00:43.412Z,100533.06
2024-05-09T20:03:14.300Z,100536.27
2024-05-09T20:05:46.400Z,100539.41
2024-05-09T20:08:15.958Z,100538.03
2024-05-09T20:10:43.851Z,100543.23
2024-05-09T20:13:13.530Z,100539.77
2024-05-09T20:15:41.826Z,100542.30
2024-05-09T20:18:10.048Z,100539.29
2024-05-09T20:20:41.784Z,100540.09
2024-05-09T20:23:12.306Z,100534.75
2024-05-09T20:25:41.941Z,100536.91
2024-05-09T20:28:10.259Z,100542.64
2024-05-09T20:30:38.758Z,100543.88
2024-05-09T20:33:08.560Z,100545.42
2024-05-09T20:35:37.658Z,100548.29
2024-05-09T20:38:05.801Z,100552.37
2024-05-09T20:40:37.638Z,100554.02
2024-05-09T20:43:09.677Z,100552.65
2024-05-09T20:45:39.019Z,100553.33
2024-05-09T20:48:08.659Z,100552.63
2024-05-09T20:50:40.601Z,100555.41
2024-05-09T20:53:12.192Z,100556.87
2024-05-09T20:55:41.037Z,100559.63
2024-05-09T20:58:10.103Z,100559.73
2024-05-09T21:00:44.541Z,100555.73
2024-05-09T21:03:17.889Z,100556.27
2024-05-09T21:05:48.253Z,100553.22
2024-05-09T21:08:16.714Z,100556.05
2024-05-09T21:10:44.624Z,100557.12
2024-05-09T21:13:12.749Z,100557.95
2024-05-09T21:15:41.027Z,100557.30
2024-05-09T21:18:15.738Z,100562.73
2024-05-09T21:20:51.068Z,100566.23
2024-05-09T21:23:19.227Z,100566.44
2024-05-09T21:25:46.873Z,100570.48
2024-05-09T21:28:15.266Z,100574.45
2024-05-09T21:30:43.626Z,100576.98
2024-05-09T21:33:13.585Z,100572.30
2024-05-09T21:35:42.990Z,100571.25
2024-05-09T21:38:13.265Z,100573.32
2024-05-09T21:40:41.726Z,100578.04
2024-05-09T21:43:10.041Z,100580.89
2024-05-09T21:45:38.329Z,100580.08
2024-05-09T21:48:07.306Z,100580.26
2024-05-09T21:50:40.453Z,100579.33
2024-05-09T21:53:11.863Z,100581.91
2024-05-09T21:55:44.756Z,100579.30
2024-05-09T21:58:14.213Z,100580.80
2024-05-09T22:00:44.927Z,100581.58
2024-05-09T22:03:13.944Z,100581.30
2024-05-09T22:05:43.954Z,100583.30
2024-05-09T22:08:12.105Z,100585.82
2024-05-09T22:10:40.588Z,100584.11
2024-05-09T22:13:08.960Z,100583.58
2024-05-09T22:15:39.767Z,100585.21
2024-05-09T22:18:10.226Z,100588.75
2024-05-09T22:20:46.687Z,100590.90
2024-05-09T22:23:15.498Z,100594.56
2024-05-09T22:25:43.722Z,100597.79
2024-05-09T22:28:15.101Z,100603.21
2024-05-09T22:30:45.409Z,100601.92
2024-05-09T22:33:13.482Z,100604.43
2024-05-09T22:35:41.473Z,100605.86
2024-05-09T22:38:09.701Z,100607.98
2024-05-09T22:40:46.052Z,100607.16
2024-05-09T22:43:23.068Z,100602.23
2024-05-09T22:45:56.188Z,100599.75
2024-05-09T22:48:25.568Z,100598.39
2024-05-09T22:50:54.387Z,100599.42
2024-05-09T22:53:24.629Z,100599.48
2024-05-09T22:55:53.435Z,100601.86
2024-05-09T22:58:22.512Z,100603.31
2024-05-09T23:00:50.796Z,100600.89
2024-05-09T23:03:21.234Z,100600.41
2024-05-09T23:05:49.989Z,100600.90
2024-05-09T23:08:17.845Z,100601.45
2024-05-09T23:10:45.656Z,100603.30
2024-05-09T23:13:13.837Z,100603.52
2024-05-09T23:15:42.012Z,100607.98
2024-05-09T23:18:10.490Z,100611.48
2024-05-09T23:20:40.045Z,100611.58
2024-05-09T23:23:10.017Z,100609.66
2024-05-09T23:25:41.261Z,100613.13
2024-05-09T23:28:10.323Z,100612.62
2024-05-09T23:30:40.602Z,100611.88
2024-05-09T23:33:11.614Z,100613.96
2024-05-09T23:35:41.737Z,100612.73
2024-05-09T23:38:09.830Z,100614.77
2024-05-09T23:40:40.439Z,100619.70
2024-05-09T23:43:11.491Z,100621.70
2024-05-09T23:45:41.034Z,100623.27
2024-05-09T23:48:09.718Z,100620.25
2024-05-09T23:50:39.531Z,100620.32
2024-05-09T23:53:09.824Z,100624.16
2024-05-09T23:55:39.076Z,100621.09
2024-05-09T23:58:08.634Z,100624.52
